createdAt,value
2022-09-28T00:04:19.487Z,11.61
2022-09-28T00:10:18.480Z,11.50
2022-09-28T00:19:47.191Z,11.51
2022-09-28T00:22:14.062Z,11.59
2022-09-28T00:24:41.619Z,11.52
2022-09-28T00:27:09.442Z,11.56
2022-09-28T00:29:37.637Z,11.71
2022-09-28T00:32:09.461Z,11.74
2022-09-28T00:34:39.078Z,11.70
2022-09-28T00:37:08.922Z,11.66
2022-09-28T00:39:37.284Z,11.78
2022-09-28T00:42:11.604Z,11.78
2022-09-28T00:44:41.962Z,11.82
2022-09-28T00:47:43.469Z,11.75
2022-09-28T00:50:20.741Z,11.76
2022-09-28T00:52:53.590Z,11.70
2022-09-28T00:55:27.114Z,11.65
2022-09-28T00:57:58.166Z,11.80
2022-09-28T01:00:27.806Z,11.70
2022-09-28T01:02:58.546Z,11.71
2022-09-28T01:05:28.009Z,11.80
2022-09-28T01:07:57.589Z,11.86
2022-09-28T01:10:25.268Z,11.91
2022-09-28T01:12:52.155Z,11.81
2022-09-28T01:15:21.823Z,11.83
2022-09-28T01:18:03.308Z,11.85
2022-09-28T01:20:56.933Z,11.82
2022-09-28T01:48:53.790Z,11.57
2022-09-28T03:01:25.209Z,11.87
2022-09-28T03:03:59.785Z,11.94
2022-09-28T03:06:33.734Z,11.92
2022-09-28T03:09:05.792Z,11.95
2022-09-28T03:11:40.618Z,11.90
2022-09-28T03:14:07.890Z,11.98
2022-09-28T03:16:47.153Z,11.94
2022-09-28T03:19:16.154Z,11.94
2022-09-28T03:21:43.078Z,11.95
2022-09-28T03:24:11.211Z,11.91
2022-09-28T03:26:38.190Z,11.83
2022-09-28T03:29:06.102Z,11.92
2022-09-28T03:31:33.197Z,11.98
2022-09-28T03:34:01.680Z,11.94
2022-09-28T03:36:28.584Z,11.96
2022-09-28T03:38:56.300Z,11.91
2022-09-28T03:41:24.509Z,11.95
2022-09-28T03:43:51.648Z,11.95
2022-09-28T03:46:18.735Z,11.93
2022-09-28T03:48:49.783Z,11.87
2022-09-28T03:51:18.110Z,11.89
2022-09-28T03:53:45.011Z,11.82
2022-09-28T03:56:14.812Z,11.80
2022-09-28T03:58:42.269Z,11.72
2022-09-28T04:01:16.591Z,11.71
2022-09-28T04:03:45.866Z,11.67
2022-09-28T04:06:13.421Z,11.72
2022-09-28T04:08:43.072Z,11.73
2022-09-28T04:11:10.203Z,11.72
2022-09-28T04:13:37.348Z,11.65
2022-09-28T04:16:06.630Z,11.65
2022-09-28T04:18:35.287Z,11.59
2022-09-28T04:21:21.435Z,11.57
2022-09-28T04:23:55.303Z,11.53
2022-09-28T04:26:24.417Z,11.48
2022-09-28T04:29:10.038Z,11.51
2022-09-28T04:31:42.815Z,11.55
2022-09-28T04:34:10.643Z,11.51
2022-09-28T04:36:37.621Z,11.58
2022-09-28T04:39:05.958Z,11.63
2022-09-28T04:41:33.865Z,11.63
2022-09-28T04:44:01.562Z,11.53
2022-09-28T04:46:28.439Z,11.52
2022-09-28T04:49:14.044Z,11.58
2022-09-28T04:51:48.635Z,11.51
2022-09-28T04:54:17.003Z,11.48
2022-09-28T04:56:43.941Z,11.45
2022-09-28T04:59:11.698Z,11.48
2022-09-28T05:01:40.015Z,11.38
2022-09-28T05:04:26.253Z,11.48
2022-09-28T05:07:07.860Z,11.43
2022-09-28T05:09:38.578Z,11.46
2022-09-28T05:12:05.959Z,11.45
2022-09-28T05:14:32.771Z,11.41
2022-09-28T05:16:59.811Z,11.37
2022-09-28T05:19:44.996Z,11.27
2022-09-28T05:22:14.896Z,11.39
2022-09-28T05:24:47.225Z,11.41
2022-09-28T05:27:14.673Z,11.39
2022-09-28T05:29:43.194Z,11.40
2022-09-28T05:32:25.336Z,11.37
2022-09-28T05:35:06.349Z,11.40
2022-09-28T05:37:45.545Z,11.45
2022-09-28T05:40:13.976Z,11.50
2022-09-28T05:42:41.375Z,11.50
2022-09-28T05:45:09.752Z,11.50
2022-09-28T05:47:38.943Z,11.39
2022-09-28T05:50:08.154Z,11.41
2022-09-28T05:52:35.147Z,11.50
2022-09-28T05:55:03.702Z,11.55
2022-09-28T05:57:32.011Z,11.61
2022-09-28T05:59:59.029Z,11.56
2022-09-28T06:02:28.944Z,11.38
2022-09-28T06:04:55.994Z,11.38
2022-09-28T06:07:23.448Z,11.51
2022-09-28T06:09:50.348Z,11.51
2022-09-28T06:12:38.217Z,11.43
2022-09-28T06:15:11.459Z,11.45
2022-09-28T06:17:38.408Z,11.31
2022-09-28T06:20:43.679Z,11.48
2022-09-28T06:23:17.741Z,11.53
2022-09-28T06:25:44.814Z,11.62
2022-09-28T06:28:14.710Z,11.64
2022-09-28T06:30:42.532Z,11.66
2022-09-28T06:33:14.304Z,11.69
2022-09-28T06:35:41.248Z,11.75
2022-09-28T06:38:08.359Z,11.56
2022-09-28T06:40:35.850Z,11.68
2022-09-28T06:43:10.214Z,11.65
2022-09-28T06:45:57.127Z,11.70
2022-09-28T06:48:45.150Z,11.77
2022-09-28T06:51:19.958Z,11.86
2022-09-28T06:53:57.682Z,11.92
2022-09-28T06:56:39.922Z,11.91
2022-09-28T06:59:06.880Z,11.92
2022-09-28T07:01:36.494Z,11.97
2022-09-28T07:04:11.600Z,12.11
2022-09-28T07:06:54.281Z,12.19
2022-09-28T07:09:44.999Z,12.27
2022-09-28T07:12:41.152Z,12.31
2022-09-28T07:15:27.655Z,12.46
2022-09-28T07:18:02.705Z,12.53
2022-09-28T07:20:32.010Z,12.53
2022-09-28T07:23:12.921Z,12.68
2022-09-28T07:26:07.778Z,12.84
2022-09-28T07:28:55.922Z,12.93
2022-09-28T07:31:33.773Z,13.04
2022-09-28T07:34:39.989Z,13.16
2022-09-28T07:37:26.835Z,13.19
2022-09-28T07:40:12.936Z,13.39
2022-09-28T07:42:39.908Z,13.59
2022-09-28T07:45:08.598Z,13.79
2022-09-28T07:47:35.983Z,13.76
2022-09-28T07:50:13.980Z,13.59
2022-09-28T07:52:57.418Z,13.40
2022-09-28T07:55:51.487Z,13.48
2022-09-28T07:58:35.671Z,13.32
2022-09-28T08:01:31.699Z,13.39
2022-09-28T08:04:00.003Z,13.31
2022-09-28T08:06:30.559Z,13.52
2022-09-28T08:09:00.115Z,13.78
2022-09-28T08:11:46.917Z,14.20
2022-09-28T08:14:35.317Z,14.42
2022-09-28T08:17:15.768Z,14.48
2022-09-28T08:20:04.302Z,14.44
2022-09-28T08:22:33.141Z,13.67
2022-09-28T08:25:01.089Z,13.92
2022-09-28T08:27:29.141Z,14.14
2022-09-28T08:29:56.099Z,14.11
2022-09-28T08:32:37.626Z,14.10
2022-09-28T08:35:26.202Z,14.20
2022-09-28T08:38:11.001Z,14.26
2022-09-28T08:41:05.390Z,14.19
2022-09-28T08:44:02.581Z,13.97
2022-09-28T08:46:51.341Z,13.92
2022-09-28T08:49:47.610Z,13.84
2022-09-28T08:52:39.727Z,13.80
2022-09-28T08:55:31.560Z,13.77
2022-09-28T08:58:04.443Z,13.88
2022-09-28T09:00:39.751Z,14.03
2022-09-28T09:03:12.244Z,14.05
2022-09-28T09:05:51.068Z,13.98
2022-09-28T09:08:50.098Z,13.95
2022-09-28T09:11:32.658Z,13.82
2022-09-28T09:14:15.777Z,13.83
2022-09-28T09:17:00.383Z,13.94
2022-09-28T09:19:53.858Z,14.00
2022-09-28T09:22:39.119Z,14.11
2022-09-28T09:25:18.939Z,14.21
2022-09-28T09:28:15.558Z,14.36
2022-09-28T09:30:52.812Z,14.29
2022-09-28T09:33:47.055Z,14.06
2022-09-28T09:36:47.352Z,13.93
2022-09-28T09:39:42.339Z,13.94
2022-09-28T09:42:55.463Z,13.88
2022-09-28T09:46:03.366Z,13.88
2022-09-28T09:48:45.470Z,13.98
2022-09-28T09:51:20.888Z,14.17
2022-09-28T09:53:52.820Z,14.27
2022-09-28T09:56:26.313Z,14.22
2022-09-28T09:59:20.957Z,14.39
2022-09-28T10:02:12.040Z,14.57
2022-09-28T10:04:53.567Z,14.78
2022-09-28T10:07:33.578Z,15.06
2022-09-28T10:10:02.517Z,15.30
2022-09-28T10:12:44.514Z,15.53
2022-09-28T10:15:16.241Z,15.55
2022-09-28T10:18:16.292Z,15.48
2022-09-28T10:21:02.301Z,15.35
2022-09-28T10:23:39.305Z,15.08
2022-09-28T10:26:15.740Z,15.01
2022-09-28T10:28:48.710Z,15.41
2022-09-28T10:31:37.090Z,15.97
2022-09-28T10:34:10.562Z,16.27
2022-09-28T10:36:50.135Z,16.48
2022-09-28T10:39:29.662Z,16.66
2022-09-28T10:41:59.844Z,16.39
2022-09-28T10:44:32.079Z,16.63
2022-09-28T10:47:17.560Z,16.43
2022-09-28T10:49:49.370Z,16.31
2022-09-28T10:52:31.559Z,16.27
2022-09-28T10:54:58.979Z,16.30
2022-09-28T10:57:29.093Z,16.56
2022-09-28T11:00:06.918Z,16.45
2022-09-28T11:02:56.855Z,16.12
2022-09-28T11:05:30.190Z,16.04
2022-09-28T11:08:00.775Z,16.04
2022-09-28T11:10:34.700Z,16.07
2022-09-28T11:13:12.471Z,15.94
2022-09-28T11:15:44.224Z,15.92
2022-09-28T11:18:25.235Z,15.82
2022-09-28T11:21:11.191Z,15.99
2022-09-28T11:23:41.082Z,16.32
2022-09-28T11:26:19.314Z,16.37
2022-09-28T11:28:51.262Z,16.43
2022-09-28T11:31:28.110Z,16.38
2022-09-28T11:34:06.672Z,16.13
2022-09-28T11:37:01.703Z,15.66
2022-09-28T11:39:40.927Z,15.78
2022-09-28T11:42:17.547Z,15.80
2022-09-28T11:44:48.008Z,15.79
2022-09-28T11:47:50.786Z,15.89
2022-09-28T11:50:28.458Z,15.69
2022-09-28T11:53:09.898Z,15.51
2022-09-28T11:55:42.384Z,15.80
2022-09-28T11:58:14.296Z,16.13
2022-09-28T12:00:46.508Z,16.13
2022-09-28T12:03:18.436Z,16.02
2022-09-28T12:05:52.223Z,15.88
2022-09-28T12:08:25.610Z,15.67
2022-09-28T12:11:20.569Z,15.47
2022-09-28T12:14:12.539Z,15.35
2022-09-28T12:17:05.086Z,15.38
2022-09-28T12:19:38.810Z,15.44
2022-09-28T12:22:16.022Z,15.39
2022-09-28T12:24:47.580Z,15.29
2022-09-28T12:27:17.549Z,15.21
2022-09-28T12:29:48.623Z,15.28
2022-09-28T12:32:26.604Z,15.33
2022-09-28T12:34:53.552Z,15.28
2022-09-28T12:37:54.461Z,15.42
2022-09-28T12:40:37.160Z,15.69
2022-09-28T12:43:21.547Z,15.76
2022-09-28T12:46:11.878Z,15.48
2022-09-28T12:49:21.712Z,16.06
2022-09-28T12:51:48.810Z,16.36
2022-09-28T12:54:34.458Z,16.52
2022-09-28T12:57:18.047Z,16.51
2022-09-28T12:59:56.447Z,16.54
2022-09-28T13:02:39.952Z,16.79
2022-09-28T13:05:40.941Z,16.98
2022-09-28T13:08:13.928Z,17.20
2022-09-28T13:10:46.199Z,16.73
2022-09-28T13:13:26.859Z,16.77
2022-09-28T13:16:02.590Z,16.81
2022-09-28T13:18:35.350Z,16.96
2022-09-28T13:21:25.253Z,17.06
2022-09-28T13:24:00.859Z,17.21
2022-09-28T13:26:38.240Z,17.34
2022-09-28T13:29:11.636Z,17.55
2022-09-28T13:31:51.525Z,17.48
2022-09-28T13:34:22.653Z,17.10
2022-09-28T13:37:09.075Z,16.97
2022-09-28T13:39:46.320Z,17.17
2022-09-28T13:42:46.055Z,17.42
2022-09-28T13:45:48.666Z,17.49
2022-09-28T13:48:48.521Z,17.15
2022-09-28T13:51:31.879Z,17.23
2022-09-28T13:54:02.079Z,17.24
2022-09-28T13:59:58.674Z,16.98
2022-09-28T14:03:05.595Z,16.72
2022-09-28T14:11:54.481Z,16.66
2022-09-28T14:17:54.119Z,16.16
2022-09-28T14:20:26.559Z,16.20
2022-09-28T14:23:12.397Z,16.40
2022-09-28T14:25:43.323Z,16.54
2022-09-28T14:28:30.979Z,16.49
2022-09-28T14:31:00.621Z,16.55
2022-09-28T14:33:33.771Z,16.43
2022-09-28T14:36:05.812Z,16.30
2022-09-28T14:38:54.644Z,16.29
2022-09-28T14:41:29.796Z,16.49
2022-09-28T14:44:08.374Z,16.42
2022-09-28T14:46:44.296Z,16.40
2022-09-28T14:49:40.059Z,16.26
2022-09-28T14:52:13.472Z,16.19
2022-09-28T14:54:53.953Z,15.88
2022-09-28T14:57:25.212Z,16.04
2022-09-28T14:59:52.456Z,16.37
2022-09-28T15:02:24.748Z,16.58
2022-09-28T15:04:55.210Z,16.51
2022-09-28T15:07:26.767Z,16.56
2022-09-28T15:09:56.525Z,16.39
2022-09-28T15:12:26.248Z,16.28
2022-09-28T15:14:56.357Z,16.19
2022-09-28T15:17:26.731Z,16.00
2022-09-28T15:20:24.089Z,15.95
2022-09-28T15:22:58.845Z,15.97
2022-09-28T15:25:27.253Z,15.96
2022-09-28T15:27:56.341Z,15.99
2022-09-28T15:30:28.542Z,15.93
2022-09-28T15:36:16.132Z,15.53
2022-09-28T15:38:56.795Z,15.48
2022-09-28T15:41:24.991Z,15.17
2022-09-28T15:47:15.887Z,15.22
2022-09-28T15:52:52.860Z,15.31
2022-09-28T15:55:24.724Z,15.40
2022-09-28T15:58:07.573Z,15.38
2022-09-28T16:00:35.525Z,15.33
2022-09-28T16:03:19.048Z,15.27
2022-09-28T16:05:49.087Z,15.11
2022-09-28T16:08:22.121Z,15.07
2022-09-28T16:10:57.556Z,14.97
2022-09-28T16:13:25.055Z,14.94
2022-09-28T16:15:58.142Z,14.91
2022-09-28T16:18:26.703Z,14.73
2022-09-28T16:20:56.170Z,14.69
2022-09-28T16:23:26.978Z,14.60
2022-09-28T16:25:58.956Z,14.58
2022-09-28T16:28:52.139Z,14.57
2022-09-28T16:31:33.669Z,14.48
2022-09-28T16:34:11.409Z,14.38
2022-09-28T16:36:45.302Z,14.22
2022-09-28T16:39:12.849Z,14.15
2022-09-28T16:41:44.193Z,14.09
2022-09-28T16:44:17.799Z,13.96
2022-09-28T16:46:45.672Z,13.84
2022-09-28T16:49:18.880Z,13.76
2022-09-28T16:51:47.214Z,13.66
2022-09-28T16:54:35.144Z,13.51
2022-09-28T16:57:05.676Z,13.39
2022-09-28T16:59:32.973Z,13.30
2022-09-28T17:02:00.343Z,13.20
2022-09-28T17:04:27.473Z,13.11
2022-09-28T17:06:56.028Z,13.02
2022-09-28T17:09:23.382Z,12.97
2022-09-28T17:11:56.893Z,12.93
2022-09-28T17:14:25.461Z,12.85
2022-09-28T17:17:12.652Z,12.82
2022-09-28T17:19:41.180Z,12.74
2022-09-28T17:22:08.448Z,12.66
2022-09-28T17:24:35.271Z,12.63
2022-09-28T17:27:03.366Z,12.60
2022-09-28T17:29:32.653Z,12.58
2022-09-28T17:31:59.584Z,12.48
2022-09-28T17:34:26.503Z,12.41
2022-09-28T17:36:53.568Z,12.37
2022-09-28T17:39:20.597Z,12.35
2022-09-28T17:41:47.658Z,12.33
2022-09-28T17:44:16.109Z,12.26
2022-09-28T17:46:48.447Z,12.23
2022-09-28T17:49:15.910Z,12.18
2022-09-28T17:51:42.794Z,12.17
2022-09-28T17:54:09.778Z,12.14
2022-09-28T17:56:36.920Z,12.11
2022-09-28T17:59:05.512Z,12.05
2022-09-28T18:01:35.911Z,12.01
2022-09-28T18:04:06.633Z,11.98
2022-09-28T18:06:34.371Z,11.92
2022-09-28T18:09:02.864Z,11.82
2022-09-28T18:11:29.993Z,11.75
2022-09-28T18:13:56.847Z,11.66
2022-09-28T18:16:23.948Z,11.56
2022-09-28T18:18:50.858Z,11.51
2022-09-28T18:21:19.851Z,11.47
2022-09-28T18:23:46.698Z,11.47
2022-09-28T18:26:15.172Z,11.47
2022-09-28T18:28:42.216Z,11.42
2022-09-28T18:31:10.712Z,11.35
2022-09-28T18:33:38.504Z,11.31
2022-09-28T18:36:06.779Z,11.29
2022-09-28T18:38:37.020Z,11.28
2022-09-28T18:41:08.488Z,11.26
2022-09-28T18:43:36.473Z,11.29
2022-09-28T18:46:08.104Z,11.28
2022-09-28T18:48:35.991Z,11.26
2022-09-28T18:51:03.148Z,11.30
2022-09-28T18:53:33.319Z,11.32
2022-09-28T18:56:06.031Z,11.36
2022-09-28T18:58:34.855Z,11.37
2022-09-28T19:01:28.311Z,11.43
2022-09-28T19:03:53.928Z,11.51
2022-09-28T19:06:20.845Z,11.53
2022-09-28T19:08:52.358Z,11.55
2022-09-28T19:11:20.596Z,11.54
2022-09-28T19:13:47.564Z,11.51
2022-09-28T19:16:20.823Z,11.46
2022-09-28T19:18:48.751Z,11.42
2022-09-28T19:21:15.933Z,11.46
2022-09-28T19:23:49.836Z,11.52
2022-09-28T19:26:18.898Z,11.55
2022-09-28T19:28:47.739Z,11.59
2022-09-28T19:31:14.820Z,11.57
2022-09-28T19:33:41.935Z,11.57
2022-09-28T19:36:11.866Z,11.66
2022-09-28T19:38:40.157Z,11.75
2022-09-28T19:41:10.974Z,11.77
2022-09-28T19:43:38.344Z,11.78
2022-09-28T19:46:07.141Z,11.77
2022-09-28T19:48:35.390Z,11.79
2022-09-28T19:51:05.092Z,11.78
2022-09-28T19:53:36.637Z,11.72
2022-09-28T19:56:05.608Z,11.58
2022-09-28T19:58:35.373Z,11.49
2022-09-28T20:01:07.085Z,11.44
2022-09-28T20:03:33.998Z,11.37
2022-09-28T20:06:01.864Z,11.28
2022-09-28T20:08:30.134Z,11.18
2022-09-28T20:10:59.597Z,11.16
2022-09-28T20:13:31.901Z,11.08
2022-09-28T20:16:03.390Z,11.03
2022-09-28T20:18:35.056Z,11.07
2022-09-28T20:21:03.267Z,10.99
2022-09-28T20:23:31.042Z,10.85
2022-09-28T20:25:58.197Z,10.80
2022-09-28T20:28:25.314Z,10.76
2022-09-28T20:30:52.505Z,10.70
2022-09-28T20:33:28.574Z,10.59
2022-09-28T20:35:57.865Z,10.35
2022-09-28T20:38:24.767Z,10.21
2022-09-28T20:40:51.636Z,10.14
2022-09-28T20:43:19.081Z,10.04
2022-09-28T20:45:46.005Z,9.94
2022-09-28T20:48:12.829Z,9.92
2022-09-28T20:50:41.307Z,9.95
2022-09-28T20:53:09.546Z,9.95
2022-09-28T20:55:36.383Z,9.84
2022-09-28T20:58:04.244Z,9.83
2022-09-28T21:00:31.294Z,9.87
2022-09-28T21:02:58.129Z,9.82
2022-09-28T21:05:25.035Z,9.86
2022-09-28T21:07:51.856Z,9.84
2022-09-28T21:10:20.106Z,9.81
2022-09-28T21:12:50.250Z,9.72
2022-09-28T21:15:17.110Z,9.66
2022-09-28T21:17:44.025Z,9.57
2022-09-28T21:20:10.968Z,9.47
2022-09-28T21:22:37.817Z,9.39
2022-09-28T21:25:05.356Z,9.32
2022-09-28T21:27:34.024Z,9.30
2022-09-28T21:30:03.045Z,9.23
2022-09-28T21:32:29.895Z,9.23
2022-09-28T21:34:56.770Z,9.25
2022-09-28T21:37:23.781Z,9.29
2022-09-28T21:39:50.587Z,9.31
2022-09-28T21:42:17.416Z,9.30
2022-09-28T21:44:45.642Z,9.30
2022-09-28T21:47:12.509Z,9.25
2022-09-28T21:49:39.353Z,9.23
2022-09-28T21:52:06.222Z,9.18
2022-09-28T21:54:37.190Z,9.07
2022-09-28T21:57:04.220Z,8.95
2022-09-28T21:59:31.326Z,8.83
2022-09-28T22:01:59.530Z,8.77
2022-09-28T22:04:26.685Z,8.71
2022-09-28T22:06:53.527Z,8.60
2022-09-28T22:09:20.349Z,8.50
2022-09-28T22:11:49.039Z,8.48
2022-09-28T22:14:15.897Z,8.50
2022-09-28T22:16:43.107Z,8.55
2022-09-28T22:19:11.342Z,8.54
2022-09-28T22:21:39.028Z,8.51
2022-09-28T22:24:07.147Z,8.44
2022-09-28T22:26:35.937Z,8.36
2022-09-28T22:29:05.595Z,8.27
2022-09-28T22:31:34.584Z,8.30
2022-09-28T22:34:01.955Z,8.37
2022-09-28T22:36:30.690Z,8.42
2022-09-28T22:38:58.661Z,8.55
2022-09-28T22:41:26.262Z,8.76
2022-09-28T22:43:54.845Z,8.88
2022-09-28T22:46:23.811Z,8.77
2022-09-28T22:48:52.749Z,8.69
2022-09-28T22:51:20.422Z,8.65
2022-09-28T22:53:49.014Z,8.60
2022-09-28T22:56:18.778Z,8.55
2022-09-28T22:58:47.211Z,8.47
2022-09-28T23:01:17.335Z,8.38
2022-09-28T23:03:44.924Z,8.34
2022-09-28T23:06:14.073Z,8.34
2022-09-28T23:08:41.042Z,8.33
2022-09-28T23:11:09.374Z,8.37
2022-09-28T23:13:37.616Z,8.42
2022-09-28T23:16:06.107Z,8.50
2022-09-28T23:18:36.349Z,8.55
2022-09-28T23:21:05.722Z,8.56
2022-09-28T23:23:33.368Z,8.59
2022-09-28T23:26:01.260Z,8.49
2022-09-28T23:28:30.007Z,8.45
2022-09-28T23:30:56.867Z,8.57
2022-09-28T23:33:23.753Z,8.61
2022-09-28T23:35:51.167Z,8.65
2022-09-28T23:38:18.487Z,8.60
2022-09-28T23:40:46.339Z,8.62
2022-09-28T23:43:14.276Z,8.59
2022-09-28T23:45:44.046Z,8.42
2022-09-28T23:48:10.972Z,8.41
2022-09-28T23:50:37.772Z,8.45
2022-09-28T23:53:05.624Z,8.51
2022-09-28T23:55:32.546Z,8.55
2022-09-28T23:57:59.423Z,8.55
